This is the latest recevied weather packets stored in our database for station/object LRCV. If no packets are shown the sender has not sent any weather packets the latest 1 day(s).
| Time | Temp. | Humidity | Pressure | Rain* | Wind** | Luminosity | Snow |
|---|---|---|---|---|---|---|---|
| 1778044722 | 12.78° C | 82% | 1014 hPa | - | - | - | - |
| 1778043835 | 12.78° C | 82% | 1014 hPa | - | - | - | - |
| 1778042937 | 12.22° C | 88% | 1014 hPa | - | - | - | - |
| 1778042025 | 12.22° C | 88% | 1014 hPa | - | - | - | - |
| 1778041122 | 10° C | 88% | 1014 hPa | - | - | - | - |
| 1778039322 | 8.89° C | 94% | 1014 hPa | - | - | - | - |
| 1778037521 | 7.78° C | 93% | 1014 hPa | - | - | - | - |
| 1778036621 | 7.78° C | 93% | 1014 hPa | - | - | - | - |
| 1778034821 | 8.89° C | 94% | 1014 hPa | - | - | - | - |
| 1778032121 | 10° C | 88% | 1014 hPa | - | - | - | - |
| 1778031221 | 10° C | 88% | 1014 hPa | - | - | - | - |
| 1778030322 | 10° C | 94% | 1014 hPa | - | - | - | - |
| 1778028522 | 10° C | 94% | 1013 hPa | - | - | - | - |
| 1778026722 | 11.11° C | 88% | 1013 hPa | - | - | - | - |
| 1778022222 | 11.11° C | 88% | 1014 hPa | - | - | - | - |
| 1778021322 | 12.22° C | 82% | 1014 hPa | - | - | - | - |
| 1778019519 | 12.22° C | 82% | 1014 hPa | - | - | - | - |
| 1778018622 | 12.22° C | 82% | 1014 hPa | - | - | - | - |
| 1778015921 | 15° C | 63% | 1014 hPa | - | - | - | - |
| 1778015022 | 15° C | 63% | 1014 hPa | - | - | - | - |
* Rain since midnight (hover to see other rain measurements)
** Current wind speed in m/s (hover to see current wind gust speed)